Time;durP1;ratioP1;P1;durP2;ratioP2;P2;SDS_P1;SDS_P2;PMS_P1;PMS_P2;Temp;Humidity;BMP_temperature;BMP_pressure;BME280_temperature;BME280_humidity;BME280_pressure;Samples;Min_cycle;Max_cycle;Signal;HPM_P1;HPM_P2
2021/12/13 00:02:31;;;;;;;6.20;4.80;;;;;;;-143.84;93.64;43883.91;5092634;28;20444;-75
2021/12/13 00:05:07;;;;;;;4.77;4.37;;;;;;;-143.84;93.64;43840.13;5093136;28;20484;-75
2021/12/13 00:07:38;;;;;;;8.23;4.73;;;;;;;-143.84;94.06;43857.28;5092721;28;20479;-75
2021/12/13 00:10:11;;;;;;;6.07;5.43;;;;;;;-143.84;93.89;43859.19;5092748;28;20447;-75
2021/12/13 00:12:42;;;;;;;5.43;5.03;;;;;;;-143.84;94.15;43857.28;5092834;28;20527;-75
2021/12/13 00:15:14;;;;;;;4.97;4.60;;;;;;;-143.84;93.74;43866.78;5092050;28;20480;-75
2021/12/13 00:17:45;;;;;;;5.70;5.20;;;;;;;-143.84;94.28;43880.13;5092644;28;20917;-75
2021/12/13 00:20:19;;;;;;;5.73;5.23;;;;;;;-143.84;94.05;43853.47;5092446;28;20434;-75
2021/12/13 00:22:50;;;;;;;4.67;4.33;;;;;;;-143.84;93.72;43883.91;5092324;28;20466;-75
2021/12/13 00:25:20;;;;;;;4.27;3.97;;;;;;;-143.84;93.18;43904.84;5092393;28;20801;-75
2021/12/13 00:27:59;;;;;;;4.60;4.20;;;;;;;-143.84;92.23;43954.34;5092043;28;20472;-75
2021/12/13 00:30:34;;;;;;;4.57;4.27;;;;;;;-143.84;92.24;43977.19;5092278;28;20505;-75
2021/12/13 00:33:12;;;;;;;6.03;3.80;;;;;;;-143.84;91.86;44100.94;5091899;28;20446;-74
2021/12/13 00:35:48;;;;;;;4.60;4.20;;;;;;;-143.84;91.61;44146.63;5091297;28;20456;-75
2021/12/13 00:38:17;;;;;;;4.10;3.80;;;;;;;-143.84;91.66;44114.25;5091943;28;20454;-75
2021/12/13 00:40:49;;;;;;;3.73;3.50;;;;;;;-143.84;91.40;44100.94;5092222;28;20509;-74
2021/12/13 00:43:22;;;;;;;4.20;3.90;;;;;;;-143.84;92.40;44017.16;5091657;28;20866;-75
2021/12/13 00:45:55;;;;;;;4.77;4.47;;;;;;;-143.84;92.18;44015.25;5091729;28;20439;-75
2021/12/13 00:48:24;;;;;;;5.07;4.57;;;;;;;-143.84;92.57;44009.56;5091602;28;20428;-75
2021/12/13 00:51:01;;;;;;;4.83;4.43;;;;;;;-143.84;92.80;43992.41;5091965;28;20838;-74
2021/12/13 00:53:33;;;;;;;4.60;4.30;;;;;;;-143.84;93.17;43937.22;5091544;28;20451;-75
2021/12/13 00:56:01;;;;;;;6.83;5.87;;;;;;;-143.84;93.65;43870.59;5091615;28;21010;-75
2021/12/13 00:58:29;;;;;;;5.40;4.90;;;;;;;-143.84;93.28;43918.19;5091409;28;20493;-75
2021/12/13 01:00:59;;;;;;;6.10;5.60;;;;;;;-143.84;93.31;43910.56;5091235;28;20435;-74
2021/12/13 01:03:34;;;;;;;6.33;5.50;;;;;;;-143.84;93.49;43885.81;5091446;28;20493;-75
2021/12/13 01:06:40;;;;;;;5.50;5.00;;;;;;;-143.84;93.62;43880.13;5091463;28;20427;-75
2021/12/13 01:09:57;;;;;;;4.63;4.33;;;;;;;-143.84;94.11;43899.16;5091223;28;20466;-74
2021/12/13 01:12:26;;;;;;;7.03;4.47;;;;;;;-143.84;93.63;43883.91;5057443;28;20436;-75
2021/12/13 01:14:58;;;;;;;5.70;4.93;;;;;;;-143.84;93.96;43901.06;5090842;28;20491;-75
2021/12/13 01:17:50;;;;;;;3.70;3.40;;;;;;;-143.84;93.93;43868.69;5091235;28;20852;-75
2021/12/13 01:20:27;;;;;;;4.60;4.20;;;;;;;-143.84;93.71;43859.19;5091181;28;20440;-75
2021/12/13 01:23:01;;;;;;;4.60;4.13;;;;;;;-143.84;94.44;43870.59;5091460;28;20440;-74
2021/12/13 01:25:44;;;;;;;3.60;3.40;;;;;;;-143.84;94.03;43887.72;5091265;28;20464;-75
2021/12/13 01:28:20;;;;;;;4.03;3.73;;;;;;;-143.84;94.22;43876.31;5090887;28;20490;-75
2021/12/13 01:30:51;;;;;;;5.83;4.43;;;;;;;-143.84;94.75;43876.31;5091191;28;20771;-75
2021/12/13 01:33:19;;;;;;;4.10;3.80;;;;;;;-143.84;94.78;43876.31;5090677;28;20527;-75
2021/12/13 01:35:50;;;;;;;4.43;3.90;;;;;;;-143.84;94.81;43885.81;5091044;28;20440;-75
2021/12/13 01:38:31;;;;;;;3.43;3.20;;;;;;;-143.84;94.50;43853.47;5090817;28;20443;-75
2021/12/13 01:40:59;;;;;;;5.00;4.60;;;;;;;-143.84;94.71;43872.50;5090507;28;20443;-74
2021/12/13 01:43:29;;;;;;;5.90;4.17;;;;;;;-143.84;94.42;43868.69;5090407;28;20436;-75
2021/12/13 01:45:58;;;;;;;4.20;3.90;;;;;;;-143.84;93.99;43891.53;5090719;28;20444;-75
2021/12/13 01:48:29;;;;;;;4.20;3.90;;;;;;;-143.84;94.54;43889.63;5089570;28;21034;-75
2021/12/13 01:51:06;;;;;;;5.23;4.40;;;;;;;-143.84;94.28;43853.47;5090188;28;20444;-75
2021/12/13 01:53:39;;;;;;;4.20;3.80;;;;;;;-143.84;94.33;43866.78;5090592;28;20937;-75
2021/12/13 01:56:24;;;;;;;4.20;3.90;;;;;;;-143.84;94.21;43893.44;5090401;28;20439;-75
2021/12/13 01:58:52;;;;;;;3.77;3.57;;;;;;;-143.84;93.79;43893.44;5090268;28;20794;-75
2021/12/13 02:01:24;;;;;;;4.13;3.80;;;;;;;-143.84;93.90;43899.16;5090171;28;20523;-74
2021/12/13 02:04:00;;;;;;;3.70;3.50;;;;;;;-143.84;94.00;43883.91;5089979;28;20501;-75
2021/12/13 02:06:36;;;;;;;3.90;3.70;;;;;;;-143.84;93.45;43887.72;5089906;28;20845;-75
2021/12/13 02:09:10;;;;;;;4.17;3.87;;;;;;;-143.84;92.71;43904.84;5090312;28;20440;-74
2021/12/13 02:11:38;;;;;;;4.00;3.70;;;;;;;-143.84;93.03;43929.59;5089979;28;20444;-73
2021/12/13 02:14:12;;;;;;;3.83;3.63;;;;;;;-143.84;93.05;43946.75;5089538;28;20533;-74
2021/12/13 02:16:58;;;;;;;4.53;4.17;;;;;;;-143.84;93.27;43904.84;5090019;28;20459;-74
2021/12/13 02:19:32;;;;;;;3.90;3.70;;;;;;;-143.84;93.34;43889.63;5090013;28;20564;-74
2021/12/13 02:22:10;;;;;;;4.07;3.77;;;;;;;-143.84;93.25;43861.06;5090277;28;20451;-74
2021/12/13 02:24:39;;;;;;;3.73;3.50;;;;;;;-143.84;93.66;43899.16;5089736;28;20436;-75
2021/12/13 02:27:08;;;;;;;2.90;2.70;;;;;;;-143.84;93.56;43908.66;5090009;28;20908;-75
2021/12/13 02:29:37;;;;;;;8.83;4.27;;;;;;;-143.84;93.61;43876.31;5089644;28;20981;-75
2021/12/13 02:32:10;;;;;;;4.37;3.97;;;;;;;-143.84;93.72;43880.13;5089618;28;20518;-74
2021/12/13 02:34:41;;;;;;;5.07;4.70;;;;;;;-143.84;93.51;43880.13;5089632;28;20455;-74
2021/12/13 02:37:10;;;;;;;4.60;4.30;;;;;;;-143.84;93.31;43904.84;5089790;28;20827;-75
2021/12/13 02:39:44;;;;;;;3.83;3.63;;;;;;;-143.84;93.58;43918.19;5089534;28;20497;-75
2021/12/13 02:42:13;;;;;;;3.83;3.63;;;;;;;-143.84;93.57;43891.53;5089274;28;20957;-74
2021/12/13 02:44:44;;;;;;;3.40;3.20;;;;;;;-143.84;93.37;43922.00;5090083;28;20937;-74
2021/12/13 02:47:16;;;;;;;6.37;3.80;;;;;;;-143.84;93.40;43922.00;5089404;28;20553;-74
2021/12/13 02:49:44;;;;;;;4.07;3.77;;;;;;;-143.84;93.03;43944.84;5089384;28;20839;-74
2021/12/13 02:52:16;;;;;;;4.57;4.00;;;;;;;-143.84;93.51;43897.25;5089304;28;20444;-74
2021/12/13 02:54:48;;;;;;;3.60;3.30;;;;;;;-143.84;93.42;43944.84;5089107;28;20496;-74
2021/12/13 02:57:17;;;;;;;3.83;3.63;;;;;;;-143.84;93.26;43895.34;5089233;28;20489;-73
2021/12/13 02:59:48;;;;;;;3.53;3.33;;;;;;;-143.84;93.52;43901.06;5089027;28;20436;-74
2021/12/13 03:02:21;;;;;;;3.97;3.67;;;;;;;-143.84;93.23;43883.91;5089526;28;21293;-73
2021/12/13 03:04:50;;;;;;;5.23;3.57;;;;;;;-143.84;93.51;43878.22;5088925;28;20448;-74
2021/12/13 03:07:22;;;;;;;3.90;3.70;;;;;;;-143.84;92.95;43929.59;5089026;28;20471;-74
2021/12/13 03:09:54;;;;;;;4.40;4.00;;;;;;;-143.84;93.14;43933.41;5089060;28;20930;-74
2021/12/13 03:12:25;;;;;;;4.73;4.33;;;;;;;-143.84;93.54;43885.81;5089677;28;20436;-75
2021/12/13 03:14:56;;;;;;;4.40;4.10;;;;;;;-143.84;93.94;43893.44;5089889;28;20479;-75
2021/12/13 03:17:27;;;;;;;3.93;3.73;;;;;;;-143.84;94.14;43893.44;5089877;28;20973;-75
2021/12/13 03:20:11;;;;;;;3.67;3.40;;;;;;;-143.84;93.71;43880.13;5090169;28;20440;-75
2021/12/13 03:23:09;;;;;;;3.50;3.33;;;;;;;-143.84;92.88;43941.03;5089199;28;20436;-74
2021/12/13 03:25:54;;;;;;;3.90;3.60;;;;;;;-143.84;93.08;43958.16;5089943;28;20448;-75
2021/12/13 03:28:39;;;;;;;3.37;3.07;;;;;;;-143.84;92.51;44000.03;5089507;28;20505;-75
2021/12/13 03:31:10;;;;;;;3.10;3.00;;;;;;;-143.84;92.23;44007.66;5089386;28;20872;-75
2021/12/13 03:33:57;;;;;;;2.93;2.80;;;;;;;-143.84;91.76;44059.03;5088973;28;20439;-74
2021/12/13 03:36:38;;;;;;;2.90;2.70;;;;;;;-143.84;91.75;44142.81;5089297;28;20461;-74
2021/12/13 03:39:09;;;;;;;3.50;3.30;;;;;;;-143.84;91.54;44188.50;5089094;28;20455;-74
2021/12/13 03:41:41;;;;;;;3.40;3.10;;;;;;;-143.84;91.26;44199.91;5089173;28;20513;-73
2021/12/13 03:44:12;;;;;;;3.07;2.83;;;;;;;-143.84;91.97;44161.84;5089839;28;20493;-73
2021/12/13 03:46:44;;;;;;;3.53;2.70;;;;;;;-143.84;91.92;44110.44;5087676;28;20447;-73
2021/12/13 03:49:11;;;;;;;2.97;2.87;;;;;;;-143.84;92.17;44062.84;5088171;28;20865;-73
2021/12/13 03:51:41;;;;;;;2.70;2.50;;;;;;;-143.84;92.15;44062.84;5089252;28;20444;-72
2021/12/13 03:54:12;;;;;;;2.80;2.67;;;;;;;-143.84;92.25;44066.66;5088258;28;20435;-72
2021/12/13 03:56:44;;;;;;;3.00;2.70;;;;;;;-143.84;92.41;44032.41;5088371;28;20494;-73
2021/12/13 03:59:16;;;;;;;3.27;3.07;;;;;;;-143.84;92.43;43986.72;5088860;28;20443;-73
2021/12/13 04:01:47;;;;;;;3.07;2.87;;;;;;;-143.84;92.73;44013.38;5089408;28;20440;-73
2021/12/13 04:04:21;;;;;;;2.77;2.67;;;;;;;-143.84;92.99;43965.78;5089007;28;20836;-72
2021/12/13 04:06:53;;;;;;;3.20;3.00;;;;;;;-143.84;92.68;43975.28;5089083;28;20508;-73
2021/12/13 04:09:22;;;;;;;3.63;3.43;;;;;;;-143.84;92.97;43939.13;5088902;28;20444;-74
2021/12/13 04:11:57;;;;;;;3.30;3.00;;;;;;;-143.84;93.29;43899.16;5090609;28;20442;-74
2021/12/13 04:14:30;;;;;;;3.03;2.93;;;;;;;-143.84;93.41;43897.25;5092194;28;20487;-74
2021/12/13 04:17:09;;;;;;;3.23;3.03;;;;;;;-143.84;92.92;43925.78;5092248;28;20433;-74
2021/12/13 04:19:55;;;;;;;5.50;3.93;;;;;;;-143.84;93.47;43902.97;5092419;28;20446;-74
2021/12/13 04:22:26;;;;;;;3.77;3.47;;;;;;;-143.84;93.63;43901.06;5092339;28;20440;-74
2021/12/13 04:24:59;;;;;;;3.70;3.40;;;;;;;-143.84;93.80;43882.00;5092098;28;20446;-73
2021/12/13 04:27:30;;;;;;;3.63;3.43;;;;;;;-143.84;93.79;43904.84;5092056;28;20495;-74
2021/12/13 04:30:01;;;;;;;4.90;4.50;;;;;;;-143.84;93.37;43885.81;5091902;28;20444;-74
2021/12/13 04:32:32;;;;;;;3.93;3.53;;;;;;;-143.84;93.17;43929.59;5091930;28;20572;-73
2021/12/13 04:35:03;;;;;;;3.80;3.60;;;;;;;-143.84;93.16;43872.50;5091940;28;20448;-74
2021/12/13 04:37:35;;;;;;;3.33;3.13;;;;;;;-143.84;93.51;43908.66;5091501;28;20435;-74
2021/12/13 04:40:08;;;;;;;3.63;3.37;;;;;;;-143.84;93.42;43918.19;5091871;28;20431;-74
2021/12/13 04:42:37;;;;;;;3.97;3.20;;;;;;;-143.84;93.52;43918.19;5091580;28;20444;-74
2021/12/13 04:45:08;;;;;;;3.33;3.23;;;;;;;-143.84;93.63;43910.56;5091747;28;20440;-74
2021/12/13 04:47:38;;;;;;;3.77;3.57;;;;;;;-143.84;93.56;43902.97;5091727;28;20479;-74
2021/12/13 04:50:12;;;;;;;4.00;3.70;;;;;;;-143.84;93.56;43899.16;5091458;28;20436;-74
2021/12/13 04:52:41;;;;;;;3.70;3.47;;;;;;;-143.84;93.47;43912.47;5091302;28;20436;-74
2021/12/13 04:55:14;;;;;;;4.40;4.10;;;;;;;-143.84;93.25;43918.19;5091427;28;20455;-74
2021/12/13 04:57:43;;;;;;;4.10;3.80;;;;;;;-143.84;93.47;43899.16;5091446;28;21029;-74
2021/12/13 05:00:15;;;;;;;4.23;3.93;;;;;;;-143.84;93.64;43902.97;5091309;28;20448;-74
2021/12/13 05:02:48;;;;;;;3.70;3.50;;;;;;;-143.84;93.58;43910.56;5091058;28;20443;-74
2021/12/13 05:05:17;;;;;;;3.73;3.53;;;;;;;-143.84;93.05;43952.44;5091391;28;20497;-74
2021/12/13 05:07:50;;;;;;;3.93;3.70;;;;;;;-143.84;93.39;43916.28;5091395;28;20475;-74
2021/12/13 05:10:18;;;;;;;4.30;4.00;;;;;;;-143.84;93.32;43946.75;5091277;28;20466;-74
2021/12/13 05:13:06;;;;;;;3.63;3.37;;;;;;;-143.84;93.60;43918.19;5091857;28;20497;-75
2021/12/13 05:15:37;;;;;;;4.60;4.30;;;;;;;-143.84;93.79;43880.13;5098934;28;20829;-75
2021/12/13 05:18:08;;;;;;;3.67;3.47;;;;;;;-143.84;94.07;43882.00;5109483;28;20494;-75
2021/12/13 05:20:38;;;;;;;4.20;3.90;;;;;;;-143.84;93.59;43893.44;5092053;28;20440;-75
2021/12/13 05:23:09;;;;;;;7.63;6.83;;;;;;;-143.84;93.64;43853.47;5092422;28;20428;-77
2021/12/13 05:25:39;;;;;;;5.07;4.67;;;;;;;-143.84;93.92;43864.88;5089477;28;20436;-75
2021/12/13 05:28:12;;;;;;;6.43;4.00;;;;;;;-143.84;94.07;43882.00;5071874;28;20518;-74
2021/12/13 05:30:45;;;;;;;4.40;4.10;;;;;;;-143.84;93.92;43870.59;5071384;28;20453;-75
2021/12/13 05:33:15;;;;;;;4.10;3.80;;;;;;;-143.84;93.50;43895.34;5072245;28;20432;-74
2021/12/13 05:35:47;;;;;;;4.90;4.50;;;;;;;-143.84;93.54;43912.47;5090173;28;20452;-75
2021/12/13 05:38:26;;;;;;;4.50;4.10;;;;;;;-143.84;93.48;43922.00;5091276;28;20427;-74
2021/12/13 05:40:53;;;;;;;4.13;3.83;;;;;;;-143.84;93.92;43893.44;5090891;28;20455;-74
2021/12/13 05:43:24;;;;;;;4.33;4.00;;;;;;;-143.84;94.22;43880.13;5091276;28;20477;-74
2021/12/13 05:45:55;;;;;;;4.47;4.17;;;;;;;-143.84;93.77;43908.66;5090919;28;20436;-74
2021/12/13 05:48:25;;;;;;;4.93;4.63;;;;;;;-143.84;93.49;43908.66;5090764;28;20485;-74
2021/12/13 05:50:55;;;;;;;4.23;3.93;;;;;;;-143.84;93.13;43950.53;5090765;28;20875;-74
2021/12/13 05:53:25;;;;;;;4.27;3.97;;;;;;;-143.84;92.91;43967.69;5090946;28;20440;-73
2021/12/13 05:55:58;;;;;;;4.07;3.80;;;;;;;-143.84;93.02;43912.47;5091039;28;20513;-72
2021/12/13 05:58:43;;;;;;;4.93;4.43;;;;;;;-143.84;92.87;43967.69;5090665;28;21093;-73
2021/12/13 06:01:15;;;;;;;4.40;3.87;;;;;;;-143.84;92.32;44030.50;5090649;28;20917;-72
2021/12/13 06:03:47;;;;;;;4.73;4.43;;;;;;;-143.84;92.44;44020.97;5090638;28;20488;-72
2021/12/13 06:06:19;;;;;;;4.50;4.20;;;;;;;-143.84;91.83;44097.13;5090614;28;20443;-72
2021/12/13 06:08:50;;;;;;;5.00;4.60;;;;;;;-143.84;91.72;44148.53;5090718;28;20842;-72
2021/12/13 06:11:20;;;;;;;4.60;4.20;;;;;;;-143.84;91.60;44182.78;5090357;28;20440;-73
2021/12/13 06:14:04;;;;;;;6.07;3.53;;;;;;;-143.84;91.74;44175.16;5090134;28;21058;-72
2021/12/13 06:16:45;;;;;;;5.10;4.40;;;;;;;-143.84;91.23;44199.91;5090365;28;20489;-72
2021/12/13 06:19:22;;;;;;;6.47;4.40;;;;;;;-143.84;91.28;44317.94;5090194;28;20501;-73
2021/12/13 06:22:01;;;;;;;4.17;3.87;;;;;;;-143.84;91.44;44255.13;5090314;28;20447;-72
2021/12/13 06:24:31;;;;;;;4.30;4.00;;;;;;;-143.84;91.34;44228.47;5090258;28;20442;-73
2021/12/13 06:27:06;;;;;;;4.40;4.07;;;;;;;-143.84;91.26;44295.09;5090479;28;20440;-72
2021/12/13 06:30:04;;;;;;;4.87;4.57;;;;;;;-143.84;91.21;44258.94;5089985;28;20479;-72
2021/12/13 06:32:37;;;;;;;4.67;4.30;;;;;;;-143.84;91.09;44253.22;5090099;28;20941;-72
2021/12/13 06:35:42;;;;;;;5.20;4.80;;;;;;;-143.84;91.46;44213.25;5089567;28;20440;-72
2021/12/13 06:38:45;;;;;;;4.03;3.83;;;;;;;-143.84;91.09;44338.88;5027608;28;20443;-72
2021/12/13 06:41:20;;;;;;;4.33;3.83;;;;;;;-143.84;90.34;44519.75;5090346;28;20440;-72
2021/12/13 06:43:51;;;;;;;3.30;3.10;;;;;;;-143.84;89.64;44759.66;5090171;28;20684;-72
2021/12/13 06:46:43;;;;;;;4.40;3.73;;;;;;;-143.84;89.28;44795.81;5089824;28;21008;-72
2021/12/13 06:49:19;;;;;;;3.40;3.20;;;;;;;-143.84;88.37;44948.16;5089568;28;20541;-73
2021/12/13 06:51:51;;;;;;;5.73;3.70;;;;;;;-143.84;88.28;44965.28;5089112;28;20481;-74
2021/12/13 06:54:22;;;;;;;10.73;4.50;;;;;;;-143.84;88.79;44870.09;5089269;28;20509;-74
2021/12/13 06:56:56;;;;;;;3.30;3.00;;;;;;;-143.84;88.87;44832.00;5089176;28;20484;-74
2021/12/13 06:59:24;;;;;;;3.67;3.37;;;;;;;-143.84;89.07;44879.59;5089050;28;20467;-74
2021/12/13 07:02:04;;;;;;;4.50;4.10;;;;;;;-143.84;89.39;44786.31;5088826;28;20436;-74
2021/12/13 07:04:49;;;;;;;5.53;4.10;;;;;;;-143.84;90.00;44708.25;5088828;28;20440;-74
2021/12/13 07:07:18;;;;;;;4.30;4.00;;;;;;;-143.84;90.41;44670.16;5089033;28;20489;-74
2021/12/13 07:09:54;;;;;;;5.53;5.10;;;;;;;-143.84;90.72;44571.16;5089045;28;21079;-74
2021/12/13 07:12:24;;;;;;;5.17;4.77;;;;;;;-143.84;90.47;44533.09;5088715;28;20513;-74
2021/12/13 07:14:52;;;;;;;5.83;5.33;;;;;;;-143.84;90.41;44569.25;5088612;28;20475;-74
2021/12/13 07:17:26;;;;;;;5.70;4.40;;;;;;;-143.84;90.29;44611.13;5088631;28;20439;-74
2021/12/13 07:19:54;;;;;;;4.97;4.60;;;;;;;-143.84;89.93;44683.50;5089387;28;20526;-71
2021/12/13 07:22:24;;;;;;;4.30;4.00;;;;;;;-143.84;89.87;44681.59;5090329;28;20436;-71
2021/12/13 07:24:53;;;;;;;6.07;5.30;;;;;;;-143.84;89.92;44717.75;5089452;28;20427;-71
2021/12/13 07:27:23;;;;;;;5.43;4.60;;;;;;;-143.84;89.59;44738.69;5089285;28;20492;-71
2021/12/13 07:29:53;;;;;;;5.53;5.07;;;;;;;-143.84;89.95;44708.25;5089424;28;20472;-71
2021/12/13 07:32:27;;;;;;;4.80;4.50;;;;;;;-143.84;89.23;44811.06;5089352;28;20495;-71
2021/12/13 07:35:08;;;;;;;4.17;3.87;;;;;;;-143.84;89.13;44889.13;5090415;28;20448;-71
2021/12/13 07:37:39;;;;;;;4.97;4.57;;;;;;;-143.84;88.36;44934.81;5089977;28;20469;-72
2021/12/13 07:40:30;;;;;;;5.07;4.67;;;;;;;-143.84;88.65;44921.50;5089958;28;20477;-72
2021/12/13 07:43:06;;;;;;;4.80;4.40;;;;;;;-143.84;88.81;44868.19;5090520;28;20874;-72
2021/12/13 07:45:38;;;;;;;3.87;3.57;;;;;;;-143.84;88.41;44938.63;5090333;28;20435;-73
2021/12/13 07:48:12;;;;;;;5.23;4.73;;;;;;;-143.84;88.10;44946.25;5094221;28;21316;-71
2021/12/13 07:50:39;;;;;;;3.70;3.40;;;;;;;-143.84;88.41;44950.06;5093753;28;20420;-71
2021/12/13 07:53:10;;;;;;;6.60;5.47;;;;;;;-143.84;88.52;44934.81;5094233;28;20424;-71
2021/12/13 07:55:46;;;;;;;7.00;5.77;;;;;;;-143.84;88.71;44921.50;5091810;28;20448;-71
2021/12/13 07:58:18;;;;;;;5.20;4.70;;;;;;;-143.84;88.15;44955.75;5091687;28;20542;-71
2021/12/13 08:00:46;;;;;;;5.00;4.50;;;;;;;-143.84;88.95;44898.66;5090580;28;20453;-71
2021/12/13 08:03:17;;;;;;;5.03;4.63;;;;;;;-143.84;89.22;44845.31;5090583;28;20501;-71
2021/12/13 08:05:50;;;;;;;7.47;6.77;;;;;;;-143.84;89.10;44843.44;5087768;28;20452;-71
2021/12/13 08:08:23;;;;;;;6.83;6.07;;;;;;;-143.84;89.16;44837.72;5092278;28;21015;-71
2021/12/13 08:10:52;;;;;;;5.90;5.40;;;;;;;-143.84;89.30;44790.13;5091880;28;20454;-71
2021/12/13 08:13:25;;;;;;;8.33;5.73;;;;;;;-143.84;89.78;44713.94;5092118;28;20455;-71
2021/12/13 08:15:55;;;;;;;6.87;6.13;;;;;;;-143.84;89.46;44727.28;5092614;28;20473;-71
2021/12/13 08:18:28;;;;;;;6.73;6.10;;;;;;;-143.84;90.04;44679.69;5092406;28;20455;-71
2021/12/13 08:21:00;;;;;;;6.90;6.17;;;;;;;-143.84;90.05;44622.56;5090962;28;20459;-73
2021/12/13 08:23:33;;;;;;;6.27;5.67;;;;;;;-143.84;90.24;44670.16;5091155;28;21026;-73
2021/12/13 08:26:01;;;;;;;10.83;5.60;;;;;;;-143.84;90.52;44614.94;5091717;28;20443;-73
2021/12/13 08:28:37;;;;;;;8.10;6.00;;;;;;;-143.84;90.20;44590.19;5091835;28;20555;-73
2021/12/13 08:31:07;;;;;;;7.80;6.70;;;;;;;-143.84;90.35;44588.28;5084499;28;20443;-72
2021/12/13 08:33:40;;;;;;;7.30;6.33;;;;;;;-143.84;90.61;44496.91;5089241;28;20436;-72
2021/12/13 08:36:11;;;;;;;10.00;7.17;;;;;;;-143.84;91.05;44359.84;5089470;28;20460;-72
2021/12/13 08:38:44;;;;;;;12.50;7.70;;;;;;;-143.84;91.22;44310.34;5091064;28;20961;-72
2021/12/13 08:41:25;;;;;;;8.03;6.73;;;;;;;-143.84;91.10;44287.50;5090125;28;20448;-74
2021/12/13 08:44:00;;;;;;;8.27;7.00;;;;;;;-143.84;91.38;44295.09;5089924;28;20471;-73
2021/12/13 08:46:41;;;;;;;7.73;6.83;;;;;;;-143.84;91.65;44169.47;5088229;28;20439;-73
2021/12/13 08:49:25;;;;;;;18.17;7.10;;;;;;;-143.84;91.77;44175.16;5088339;28;20487;-73
2021/12/13 08:51:58;;;;;;;8.87;7.40;;;;;;;-143.84;92.15;44127.56;5088819;28;20501;-73
2021/12/13 08:54:38;;;;;;;7.00;6.20;;;;;;;-143.84;92.12;44062.84;5090061;28;20439;-74
2021/12/13 08:57:09;;;;;;;7.83;7.03;;;;;;;-143.84;92.05;44019.06;5088840;28;20509;-74
2021/12/13 08:59:36;;;;;;;8.23;7.00;;;;;;;-143.84;92.03;44085.69;5089440;28;20513;-74
2021/12/13 09:02:09;;;;;;;14.00;6.17;;;;;;;-143.84;92.39;44040.00;5088042;28;20472;-73
2021/12/13 09:04:55;;;;;;;7.10;6.50;;;;;;;-143.84;92.16;44059.03;5088870;28;20435;-74
2021/12/13 09:07:25;;;;;;;6.80;6.20;;;;;;;-143.84;91.97;44068.56;5088581;28;20443;-73
2021/12/13 09:09:54;;;;;;;8.87;6.50;;;;;;;-143.84;92.16;44049.53;5088697;28;20566;-74
2021/12/13 09:12:30;;;;;;;6.70;5.67;;;;;;;-143.84;91.80;44123.78;5090431;28;20451;-74
2021/12/13 09:14:59;;;;;;;12.30;7.00;;;;;;;-143.84;91.43;44108.53;5088726;28;20537;-75
2021/12/13 09:17:32;;;;;;;7.47;6.77;;;;;;;-143.84;91.16;44220.84;5088145;28;20440;-74
2021/12/13 09:20:13;;;;;;;7.93;7.13;;;;;;;-143.84;91.37;44209.44;5089982;28;20459;-74
2021/12/13 09:22:44;;;;;;;8.47;6.87;;;;;;;-143.84;91.71;44135.19;5088400;28;20494;-75
2021/12/13 09:25:16;;;;;;;8.73;6.90;;;;;;;-143.84;91.76;44119.97;5090553;28;20444;-71
2021/12/13 09:27:53;;;;;;;8.70;6.40;;;;;;;-143.84;91.29;44163.75;5090145;28;20715;-75
2021/12/13 09:30:33;;;;;;;9.93;6.70;;;;;;;-143.84;91.26;44165.66;5088390;28;20507;-74
2021/12/13 09:33:04;;;;;;;12.83;6.57;;;;;;;-143.84;91.23;44180.88;5088939;28;20448;-72
2021/12/13 09:35:48;;;;;;;6.77;5.90;;;;;;;-143.84;91.00;44209.44;5090815;28;20452;-71
2021/12/13 09:38:39;;;;;;;7.87;5.80;;;;;;;-143.84;90.83;44238.00;5088406;28;21172;-71
2021/12/13 09:41:19;;;;;;;9.43;7.10;;;;;;;-143.84;90.69;44230.38;5085694;28;20452;-73
2021/12/13 09:43:51;;;;;;;7.90;6.93;;;;;;;-143.84;91.06;44198.00;5087059;28;20452;-72
2021/12/13 09:46:21;;;;;;;7.27;6.47;;;;;;;-143.84;90.95;44319.84;5090078;28;20447;-72
2021/12/13 09:48:53;;;;;;;9.80;6.43;;;;;;;-143.84;90.98;44220.84;5090870;28;20480;-71
2021/12/13 09:51:26;;;;;;;8.03;7.23;;;;;;;-143.84;90.90;44218.94;5088884;28;20455;-74
2021/12/13 09:53:57;;;;;;;6.40;5.80;;;;;;;-143.84;90.52;44331.28;5089688;28;20447;-74
2021/12/13 09:56:29;;;;;;;6.07;5.57;;;;;;;-143.84;90.66;44321.75;5089632;28;20448;-74
2021/12/13 09:58:59;;;;;;;7.23;6.37;;;;;;;-143.84;91.06;44283.69;5091086;28;20518;-75
2021/12/13 10:01:31;;;;;;;10.00;6.00;;;;;;;-143.84;90.58;44323.66;5089592;28;20937;-74
2021/12/13 10:04:03;;;;;;;11.90;7.10;;;;;;;-143.84;90.63;44266.53;5091172;28;20448;-74
2021/12/13 10:06:37;;;;;;;12.50;7.50;;;;;;;-143.84;90.97;44257.03;5090490;28;20547;-75
2021/12/13 10:09:08;;;;;;;11.10;7.40;;;;;;;-143.84;90.66;44258.94;5087240;28;20482;-75
2021/12/13 10:11:41;;;;;;;27.40;9.50;;;;;;;-143.84;90.63;44346.50;5089245;28;20455;-72
2021/12/13 10:14:11;;;;;;;11.10;7.33;;;;;;;-143.84;90.98;44258.94;5089690;28;20471;-75
2021/12/13 10:16:42;;;;;;;9.80;7.93;;;;;;;-143.84;90.86;44300.81;5089996;28;20444;-73
2021/12/13 10:19:14;;;;;;;7.17;5.83;;;;;;;-143.84;90.73;44291.28;5088376;28;20905;-72
2021/12/13 10:21:47;;;;;;;9.60;5.03;;;;;;;-143.84;90.85;44287.50;5089655;28;20436;-72
2021/12/13 10:24:21;;;;;;;6.17;5.53;;;;;;;-143.84;91.38;44167.56;5090861;28;20444;-72
2021/12/13 10:26:51;;;;;;;6.30;5.53;;;;;;;-143.84;91.57;44083.78;5088351;28;20530;-75
2021/12/13 10:29:23;;;;;;;6.03;5.50;;;;;;;-143.84;91.55;44133.28;5089441;28;20483;-73
2021/12/13 10:31:58;;;;;;;8.70;5.93;;;;;;;-143.84;91.52;44068.56;5093262;28;20454;-72
2021/12/13 10:34:28;;;;;;;6.53;5.80;;;;;;;-143.84;91.68;44106.63;5089504;28;20477;-72
2021/12/13 10:37:00;;;;;;;7.17;6.47;;;;;;;-143.84;92.10;44024.78;5089735;28;20464;-72
2021/12/13 10:39:32;;;;;;;4.90;4.50;;;;;;;-143.84;91.49;44118.06;5090160;28;20460;-72
2021/12/13 10:42:02;;;;;;;6.70;6.00;;;;;;;-143.84;92.10;44041.91;5090158;28;20463;-72
2021/12/13 10:44:30;;;;;;;7.03;6.33;;;;;;;-143.84;91.64;44097.13;5089249;28;20451;-72
2021/12/13 10:47:04;;;;;;;7.77;6.10;;;;;;;-143.84;91.53;44144.72;5088736;28;20454;-72
2021/12/13 10:49:40;;;;;;;8.03;5.80;;;;;;;-143.84;91.45;44108.53;5089497;28;21027;-72
2021/12/13 10:52:20;;;;;;;6.27;5.67;;;;;;;-143.84;91.03;44158.03;5090130;28;20443;-72
2021/12/13 10:55:23;;;;;;;9.30;7.30;;;;;;;-143.84;91.32;44148.53;5088978;28;20521;-75
2021/12/13 10:57:50;;;;;;;9.00;6.90;;;;;;;-143.84;91.66;44087.59;5089030;28;20501;-75
2021/12/13 11:00:23;;;;;;;11.87;8.10;;;;;;;-143.84;91.74;44081.88;5089254;28;20456;-75
2021/12/13 11:02:54;;;;;;;8.80;7.47;;;;;;;-143.84;91.99;44017.16;5089304;28;20441;-76
2021/12/13 11:05:23;;;;;;;13.40;9.80;;;;;;;-143.84;92.18;43960.06;5079991;28;20467;-75
2021/12/13 11:07:53;;;;;;;10.50;8.50;;;;;;;-143.84;93.09;43981.00;5089230;28;20459;-75
2021/12/13 11:10:24;;;;;;;14.37;10.10;;;;;;;-143.84;92.14;43996.22;5076307;28;21063;-75
2021/12/13 11:12:54;;;;;;;7.50;6.77;;;;;;;-143.84;91.99;44060.94;5068870;28;20440;-75
2021/12/13 11:15:26;;;;;;;9.60;7.47;;;;;;;-143.84;91.98;44038.09;5087834;28;20488;-73
2021/12/13 11:17:55;;;;;;;8.77;7.90;;;;;;;-143.84;92.17;44047.63;5089631;28;20933;-75
2021/12/13 11:20:26;;;;;;;9.17;6.60;;;;;;;-143.84;92.49;44017.16;5090303;28;20987;-75
2021/12/13 11:22:56;;;;;;;7.87;6.47;;;;;;;-143.84;92.34;44001.94;5093270;28;20995;-75
2021/12/13 11:25:26;;;;;;;7.93;6.93;;;;;;;-143.84;92.53;43963.88;5093160;28;20841;-75
2021/12/13 11:27:54;;;;;;;7.90;7.13;;;;;;;-143.84;92.89;43971.47;5093085;28;20492;-75
2021/12/13 11:30:26;;;;;;;7.27;6.57;;;;;;;-143.84;93.18;43918.19;5092869;28;20479;-74
2021/12/13 11:33:57;;;;;;;6.83;6.23;;;;;;;-143.84;93.85;43912.47;5092659;28;20432;-74
2021/12/13 11:36:46;;;;;;;9.40;8.43;;;;;;;-143.84;94.51;43861.06;5092734;28;20447;-74
2021/12/13 11:39:43;;;;;;;6.97;6.37;;;;;;;-143.84;94.73;43882.00;5092444;28;20498;-74
2021/12/13 11:42:48;;;;;;;8.03;7.30;;;;;;;-143.84;94.74;43880.13;5092479;28;20448;-74
2021/12/13 11:46:05;;;;;;;8.83;7.87;;;;;;;-143.84;95.07;43874.41;5092949;28;20918;-74
2021/12/13 11:48:49;;;;;;;8.53;7.23;;;;;;;-143.84;94.67;43906.75;5018617;28;20998;-72
2021/12/13 11:51:49;;;;;;;7.93;7.17;;;;;;;-143.84;95.25;43862.97;5092876;28;20535;-72